sensor_id;sensor_type;location;lat;lon;timestamp;pressure;altitude;pressure_sealevel;temperature;humidity
15272;BME280;7737;51.578;7.268;2022-10-16T00:01:31;100622.63;;;14.25;100.00
15272;BME280;7737;51.578;7.268;2022-10-16T00:03:59;100622.72;;;14.23;100.00
15272;BME280;7737;51.578;7.268;2022-10-16T00:06:27;100616.16;;;14.15;100.00
15272;BME280;7737;51.578;7.268;2022-10-16T00:08:54;100611.56;;;14.17;100.00
15272;BME280;7737;51.578;7.268;2022-10-16T00:11:24;100608.16;;;14.15;100.00
15272;BME280;7737;51.578;7.268;2022-10-16T00:13:55;100618.84;;;14.15;100.00
15272;BME280;7737;51.578;7.268;2022-10-16T00:16:21;100624.19;;;14.15;100.00
15272;BME280;7737;51.578;7.268;2022-10-16T00:18:48;100627.91;;;14.12;100.00
15272;BME280;7737;51.578;7.268;2022-10-16T00:21:16;100629.09;;;14.08;100.00
15272;BME280;7737;51.578;7.268;2022-10-16T00:23:44;100620.75;;;14.13;100.00
15272;BME280;7737;51.578;7.268;2022-10-16T00:26:12;100627.56;;;14.04;100.00
15272;BME280;7737;51.578;7.268;2022-10-16T00:28:40;100621.47;;;14.02;100.00
15272;BME280;7737;51.578;7.268;2022-10-16T00:31:09;100623.47;;;13.98;100.00
15272;BME280;7737;51.578;7.268;2022-10-16T00:33:36;100627.69;;;14.02;100.00
15272;BME280;7737;51.578;7.268;2022-10-16T00:36:04;100628.94;;;13.97;100.00
15272;BME280;7737;51.578;7.268;2022-10-16T00:38:31;100623.91;;;13.92;100.00
15272;BME280;7737;51.578;7.268;2022-10-16T00:40:58;100623.22;;;13.89;100.00
15272;BME280;7737;51.578;7.268;2022-10-16T00:43:37;100622.16;;;13.91;100.00
15272;BME280;7737;51.578;7.268;2022-10-16T00:46:11;100628.38;;;13.92;100.00
15272;BME280;7737;51.578;7.268;2022-10-16T00:48:39;100628.56;;;13.89;100.00
15272;BME280;7737;51.578;7.268;2022-10-16T00:51:07;100625.16;;;13.87;100.00
15272;BME280;7737;51.578;7.268;2022-10-16T00:53:33;100622.34;;;13.88;100.00
15272;BME280;7737;51.578;7.268;2022-10-16T00:56:01;100631.31;;;13.87;100.00
15272;BME280;7737;51.578;7.268;2022-10-16T00:58:28;100628.28;;;13.79;100.00
15272;BME280;7737;51.578;7.268;2022-10-16T01:00:54;100628.56;;;13.89;100.00
15272;BME280;7737;51.578;7.268;2022-10-16T01:03:27;100630.00;;;13.80;100.00
15272;BME280;7737;51.578;7.268;2022-10-16T01:06:02;100625.78;;;13.90;100.00
15272;BME280;7737;51.578;7.268;2022-10-16T01:08:39;100619.69;;;13.88;100.00
15272;BME280;7737;51.578;7.268;2022-10-16T01:11:14;100624.09;;;13.89;100.00
15272;BME280;7737;51.578;7.268;2022-10-16T01:13:47;100624.72;;;13.93;100.00
15272;BME280;7737;51.578;7.268;2022-10-16T01:16:22;100633.06;;;13.88;100.00
15272;BME280;7737;51.578;7.268;2022-10-16T01:18:56;100634.59;;;13.92;100.00
15272;BME280;7737;51.578;7.268;2022-10-16T01:21:26;100635.59;;;13.90;100.00
15272;BME280;7737;51.578;7.268;2022-10-16T01:24:02;100630.25;;;13.90;100.00
15272;BME280;7737;51.578;7.268;2022-10-16T01:26:37;100633.72;;;13.92;100.00
15272;BME280;7737;51.578;7.268;2022-10-16T01:29:15;100634.31;;;13.83;100.00
15272;BME280;7737;51.578;7.268;2022-10-16T01:31:48;100633.25;;;13.85;100.00
15272;BME280;7737;51.578;7.268;2022-10-16T01:34:20;100630.69;;;13.84;100.00
15272;BME280;7737;51.578;7.268;2022-10-16T01:36:51;100636.03;;;13.84;100.00
15272;BME280;7737;51.578;7.268;2022-10-16T01:39:22;100624.28;;;13.86;100.00
15272;BME280;7737;51.578;7.268;2022-10-16T01:41:54;100618.00;;;13.73;100.00
15272;BME280;7737;51.578;7.268;2022-10-16T01:44:28;100618.56;;;13.78;100.00
15272;BME280;7737;51.578;7.268;2022-10-16T01:46:56;100618.19;;;13.70;100.00
15272;BME280;7737;51.578;7.268;2022-10-16T01:49:25;100615.41;;;13.72;100.00
15272;BME280;7737;51.578;7.268;2022-10-16T01:51:56;100618.19;;;13.70;100.00
15272;BME280;7737;51.578;7.268;2022-10-16T01:54:26;100616.66;;;13.80;100.00
15272;BME280;7737;51.578;7.268;2022-10-16T01:56:55;100625.06;;;13.74;100.00
15272;BME280;7737;51.578;7.268;2022-10-16T01:59:26;100621.19;;;13.66;100.00
15272;BME280;7737;51.578;7.268;2022-10-16T02:01:56;100611.81;;;13.59;100.00
15272;BME280;7737;51.578;7.268;2022-10-16T02:04:28;100619.84;;;13.59;100.00
15272;BME280;7737;51.578;7.268;2022-10-16T02:06:56;100621.75;;;13.57;100.00
15272;BME280;7737;51.578;7.268;2022-10-16T02:09:22;100618.41;;;13.67;100.00
15272;BME280;7737;51.578;7.268;2022-10-16T02:11:50;100618.59;;;13.64;100.00
15272;BME280;7737;51.578;7.268;2022-10-16T02:14:18;100619.94;;;13.71;100.00
15272;BME280;7737;51.578;7.268;2022-10-16T02:16:46;100625.34;;;13.70;100.00
15272;BME280;7737;51.578;7.268;2022-10-16T02:19:13;100634.81;;;13.61;100.00
15272;BME280;7737;51.578;7.268;2022-10-16T02:21:44;100647.03;;;13.65;100.00
15272;BME280;7737;51.578;7.268;2022-10-16T02:24:19;100636.03;;;13.70;100.00
15272;BME280;7737;51.578;7.268;2022-10-16T02:26:54;100642.81;;;13.75;100.00
15272;BME280;7737;51.578;7.268;2022-10-16T02:29:25;100633.19;;;13.73;100.00
15272;BME280;7737;51.578;7.268;2022-10-16T02:31:56;100638.41;;;13.74;100.00
15272;BME280;7737;51.578;7.268;2022-10-16T02:34:25;100636.16;;;13.68;100.00
15272;BME280;7737;51.578;7.268;2022-10-16T02:36:53;100637.34;;;13.77;100.00
15272;BME280;7737;51.578;7.268;2022-10-16T02:39:21;100632.31;;;13.72;100.00
15272;BME280;7737;51.578;7.268;2022-10-16T02:41:47;100644.31;;;13.79;100.00
15272;BME280;7737;51.578;7.268;2022-10-16T02:44:14;100631.75;;;13.81;100.00
15272;BME280;7737;51.578;7.268;2022-10-16T02:46:41;100629.94;;;13.82;100.00
15272;BME280;7737;51.578;7.268;2022-10-16T02:49:08;100626.56;;;13.92;100.00
15272;BME280;7737;51.578;7.268;2022-10-16T02:51:35;100639.94;;;13.92;100.00
15272;BME280;7737;51.578;7.268;2022-10-16T02:54:02;100634.34;;;13.95;100.00
15272;BME280;7737;51.578;7.268;2022-10-16T02:56:28;100629.69;;;13.99;100.00
15272;BME280;7737;51.578;7.268;2022-10-16T02:58:56;100632.09;;;13.89;100.00
15272;BME280;7737;51.578;7.268;2022-10-16T03:01:22;100627.50;;;13.91;100.00
15272;BME280;7737;51.578;7.268;2022-10-16T03:03:49;100631.25;;;13.89;100.00
15272;BME280;7737;51.578;7.268;2022-10-16T03:06:17;100630.94;;;13.93;100.00
15272;BME280;7737;51.578;7.268;2022-10-16T03:08:43;100621.97;;;13.94;100.00
15272;BME280;7737;51.578;7.268;2022-10-16T03:11:10;100627.69;;;14.02;100.00
15272;BME280;7737;51.578;7.268;2022-10-16T03:13:36;100626.91;;;14.00;100.00
15272;BME280;7737;51.578;7.268;2022-10-16T03:16:03;100638.66;;;13.98;100.00
15272;BME280;7737;51.578;7.268;2022-10-16T03:18:30;100635.59;;;14.04;100.00
15272;BME280;7737;51.578;7.268;2022-10-16T03:20:56;100639.13;;;14.04;100.00
15272;BME280;7737;51.578;7.268;2022-10-16T03:23:24;100646.09;;;14.07;100.00
15272;BME280;7737;51.578;7.268;2022-10-16T03:25:51;100641.28;;;14.12;100.00
15272;BME280;7737;51.578;7.268;2022-10-16T03:28:17;100642.75;;;14.03;100.00
15272;BME280;7737;51.578;7.268;2022-10-16T03:30:44;100626.31;;;14.10;100.00
15272;BME280;7737;51.578;7.268;2022-10-16T03:33:11;100621.91;;;14.09;100.00
15272;BME280;7737;51.578;7.268;2022-10-16T03:35:37;100629.53;;;14.15;100.00
15272;BME280;7737;51.578;7.268;2022-10-16T03:38:04;100627.16;;;14.10;100.00
15272;BME280;7737;51.578;7.268;2022-10-16T03:40:32;100628.97;;;14.10;100.00
15272;BME280;7737;51.578;7.268;2022-10-16T03:42:58;100617.44;;;14.09;100.00
15272;BME280;7737;51.578;7.268;2022-10-16T03:45:25;100616.78;;;14.06;100.00
15272;BME280;7737;51.578;7.268;2022-10-16T03:47:52;100623.63;;;14.10;100.00
15272;BME280;7737;51.578;7.268;2022-10-16T03:50:19;100620.97;;;14.10;100.00
15272;BME280;7737;51.578;7.268;2022-10-16T03:52:45;100617.34;;;14.11;100.00
15272;BME280;7737;51.578;7.268;2022-10-16T03:55:12;100621.56;;;14.00;100.00
15272;BME280;7737;51.578;7.268;2022-10-16T03:57:39;100622.91;;;13.93;100.00
15272;BME280;7737;51.578;7.268;2022-10-16T04:00:07;100625.16;;;13.87;100.00
15272;BME280;7737;51.578;7.268;2022-10-16T04:02:33;100626.75;;;13.89;100.00
15272;BME280;7737;51.578;7.268;2022-10-16T04:05:00;100636.28;;;13.93;100.00
15272;BME280;7737;51.578;7.268;2022-10-16T04:07:26;100623.09;;;13.90;100.00
15272;BME280;7737;51.578;7.268;2022-10-16T04:09:53;100626.97;;;13.86;100.00
15272;BME280;7737;51.578;7.268;2022-10-16T04:12:20;100635.34;;;13.94;100.00
15272;BME280;7737;51.578;7.268;2022-10-16T04:14:48;100638.41;;;13.88;100.00
15272;BME280;7737;51.578;7.268;2022-10-16T04:17:14;100645.28;;;13.92;100.00
15272;BME280;7737;51.578;7.268;2022-10-16T04:19:41;100641.06;;;13.88;100.00
15272;BME280;7737;51.578;7.268;2022-10-16T04:22:07;100643.38;;;13.80;100.00
15272;BME280;7737;51.578;7.268;2022-10-16T04:24:34;100655.88;;;13.80;100.00
15272;BME280;7737;51.578;7.268;2022-10-16T04:27:00;100653.19;;;13.80;100.00
15272;BME280;7737;51.578;7.268;2022-10-16T04:29:27;100658.66;;;13.78;100.00
15272;BME280;7737;51.578;7.268;2022-10-16T04:31:55;100662.69;;;13.71;100.00
15272;BME280;7737;51.578;7.268;2022-10-16T04:34:21;100662.00;;;13.68;100.00
15272;BME280;7737;51.578;7.268;2022-10-16T04:36:48;100664.38;;;13.72;100.00
15272;BME280;7737;51.578;7.268;2022-10-16T04:39:15;100666.28;;;13.70;100.00
15272;BME280;7737;51.578;7.268;2022-10-16T04:41:42;100666.09;;;13.73;100.00
15272;BME280;7737;51.578;7.268;2022-10-16T04:44:08;100668.28;;;13.67;100.00
15272;BME280;7737;51.578;7.268;2022-10-16T04:46:35;100670.97;;;13.67;100.00
15272;BME280;7737;51.578;7.268;2022-10-16T04:49:02;100676.31;;;13.67;100.00
15272;BME280;7737;51.578;7.268;2022-10-16T04:51:29;100679.66;;;13.56;100.00
15272;BME280;7737;51.578;7.268;2022-10-16T04:53:55;100686.53;;;13.60;100.00
15272;BME280;7737;51.578;7.268;2022-10-16T04:56:22;100693.09;;;13.55;100.00
15272;BME280;7737;51.578;7.268;2022-10-16T04:58:49;100688.03;;;13.64;100.00
15272;BME280;7737;51.578;7.268;2022-10-16T05:01:16;100687.19;;;13.50;100.00
15272;BME280;7737;51.578;7.268;2022-10-16T05:03:42;100689.69;;;13.53;100.00
15272;BME280;7737;51.578;7.268;2022-10-16T05:06:10;100696.34;;;13.60;100.00
15272;BME280;7737;51.578;7.268;2022-10-16T05:08:36;100683.06;;;13.58;100.00
15272;BME280;7737;51.578;7.268;2022-10-16T05:11:03;100691.09;;;13.58;100.00
15272;BME280;7737;51.578;7.268;2022-10-16T05:13:30;100701.00;;;13.56;100.00
15272;BME280;7737;51.578;7.268;2022-10-16T05:15:56;100701.59;;;13.61;100.00
15272;BME280;7737;51.578;7.268;2022-10-16T05:18:23;100703.41;;;13.61;100.00
15272;BME280;7737;51.578;7.268;2022-10-16T05:20:49;100705.41;;;13.57;100.00
15272;BME280;7737;51.578;7.268;2022-10-16T05:23:17;100704.44;;;13.58;100.00
15272;BME280;7737;51.578;7.268;2022-10-16T05:25:52;100708.94;;;13.58;100.00
15272;BME280;7737;51.578;7.268;2022-10-16T05:28:18;100712.56;;;13.57;100.00
15272;BME280;7737;51.578;7.268;2022-10-16T05:30:45;100717.53;;;13.63;100.00
15272;BME280;7737;51.578;7.268;2022-10-16T05:33:11;100707.50;;;13.66;100.00
15272;BME280;7737;51.578;7.268;2022-10-16T05:35:38;100720.97;;;13.65;100.00
15272;BME280;7737;51.578;7.268;2022-10-16T05:38:05;100721.16;;;13.62;100.00
15272;BME280;7737;51.578;7.268;2022-10-16T05:40:32;100720.84;;;13.66;100.00
15272;BME280;7737;51.578;7.268;2022-10-16T05:42:59;100719.72;;;13.70;100.00
15272;BME280;7737;51.578;7.268;2022-10-16T05:45:25;100717.81;;;13.72;100.00
15272;BME280;7737;51.578;7.268;2022-10-16T05:47:52;100721.44;;;13.71;100.00
15272;BME280;7737;51.578;7.268;2022-10-16T05:50:18;100734.03;;;13.69;100.00
15272;BME280;7737;51.578;7.268;2022-10-16T05:52:45;100729.66;;;13.68;100.00
15272;BME280;7737;51.578;7.268;2022-10-16T05:55:11;100739.56;;;13.66;100.00
15272;BME280;7737;51.578;7.268;2022-10-16T05:57:39;100743.84;;;13.69;100.00
15272;BME280;7737;51.578;7.268;2022-10-16T06:00:07;100755.97;;;13.60;100.00
15272;BME280;7737;51.578;7.268;2022-10-16T06:02:33;100741.47;;;13.64;100.00
15272;BME280;7737;51.578;7.268;2022-10-16T06:05:00;100751.78;;;13.70;100.00
15272;BME280;7737;51.578;7.268;2022-10-16T06:07:26;100762.28;;;13.73;100.00
15272;BME280;7737;51.578;7.268;2022-10-16T06:09:53;100760.34;;;13.61;100.00
15272;BME280;7737;51.578;7.268;2022-10-16T06:12:19;100768.94;;;13.66;100.00
15272;BME280;7737;51.578;7.268;2022-10-16T06:14:47;100771.22;;;13.58;100.00
15272;BME280;7737;51.578;7.268;2022-10-16T06:17:14;100764.19;;;13.71;100.00
15272;BME280;7737;51.578;7.268;2022-10-16T06:19:41;100772.47;;;13.67;100.00
15272;BME280;7737;51.578;7.268;2022-10-16T06:22:08;100784.22;;;13.64;100.00
15272;BME280;7737;51.578;7.268;2022-10-16T06:24:34;100777.53;;;13.57;100.00
15272;BME280;7737;51.578;7.268;2022-10-16T06:27:01;100784.78;;;13.69;100.00
15272;BME280;7737;51.578;7.268;2022-10-16T06:29:29;100785.75;;;13.68;100.00
15272;BME280;7737;51.578;7.268;2022-10-16T06:31:56;100781.94;;;13.72;100.00
15272;BME280;7737;51.578;7.268;2022-10-16T06:34:23;100800.06;;;13.67;100.00
15272;BME280;7737;51.578;7.268;2022-10-16T06:36:50;100799.94;;;13.69;100.00
15272;BME280;7737;51.578;7.268;2022-10-16T06:39:16;100800.06;;;13.67;100.00
15272;BME280;7737;51.578;7.268;2022-10-16T06:41:43;100805.41;;;13.67;100.00
15272;BME280;7737;51.578;7.268;2022-10-16T06:44:09;100799.88;;;13.70;100.00
15272;BME280;7737;51.578;7.268;2022-10-16T06:46:36;100808.56;;;13.74;100.00
15272;BME280;7737;51.578;7.268;2022-10-16T06:49:04;100820.66;;;13.79;100.00
15272;BME280;7737;51.578;7.268;2022-10-16T06:51:30;100816.84;;;13.69;100.00
15272;BME280;7737;51.578;7.268;2022-10-16T06:53:59;100823.25;;;13.81;100.00
15272;BME280;7737;51.578;7.268;2022-10-16T06:56:27;100822.41;;;13.80;100.00
15272;BME280;7737;51.578;7.268;2022-10-16T06:58:55;100827.56;;;13.83;100.00
15272;BME280;7737;51.578;7.268;2022-10-16T07:01:23;100836.69;;;13.79;100.00
15272;BME280;7737;51.578;7.268;2022-10-16T07:03:51;100841.50;;;13.88;100.00
15272;BME280;7737;51.578;7.268;2022-10-16T07:06:21;100851.31;;;13.88;100.00
15272;BME280;7737;51.578;7.268;2022-10-16T07:08:48;100856.19;;;13.81;100.00
15272;BME280;7737;51.578;7.268;2022-10-16T07:11:17;100864.78;;;13.86;100.00
15272;BME280;7737;51.578;7.268;2022-10-16T07:13:44;100864.88;;;13.85;100.00
15272;BME280;7737;51.578;7.268;2022-10-16T07:16:13;100863.63;;;13.90;100.00
15272;BME280;7737;51.578;7.268;2022-10-16T07:18:41;100867.19;;;13.91;100.00
15272;BME280;7737;51.578;7.268;2022-10-16T07:21:11;100878.81;;;13.90;100.00
15272;BME280;7737;51.578;7.268;2022-10-16T07:23:40;100882.16;;;13.93;100.00
15272;BME280;7737;51.578;7.268;2022-10-16T07:26:09;100880.91;;;13.85;100.00
15272;BME280;7737;51.578;7.268;2022-10-16T07:28:37;100890.09;;;13.95;100.00
15272;BME280;7737;51.578;7.268;2022-10-16T07:31:06;100891.16;;;13.92;100.00
15272;BME280;7737;51.578;7.268;2022-10-16T07:33:34;100896.50;;;13.92;100.00
15272;BME280;7737;51.578;7.268;2022-10-16T07:36:00;100898.38;;;13.90;100.00
15272;BME280;7737;51.578;7.268;2022-10-16T07:38:27;100891.34;;;14.03;100.00
15272;BME280;7737;51.578;7.268;2022-10-16T07:40:59;100898.53;;;14.03;100.00
15272;BME280;7737;51.578;7.268;2022-10-16T07:43:26;100892.69;;;14.11;100.00
15272;BME280;7737;51.578;7.268;2022-10-16T07:45:53;100903.09;;;14.15;100.00
15272;BME280;7737;51.578;7.268;2022-10-16T07:48:21;100897.88;;;14.14;100.00
15272;BME280;7737;51.578;7.268;2022-10-16T07:50:48;100901.25;;;14.31;100.00
15272;BME280;7737;51.578;7.268;2022-10-16T07:53:15;100908.91;;;14.37;100.00
15272;BME280;7737;51.578;7.268;2022-10-16T07:55:42;100907.84;;;14.40;100.00
15272;BME280;7737;51.578;7.268;2022-10-16T07:58:10;100925.97;;;14.63;100.00
15272;BME280;7737;51.578;7.268;2022-10-16T08:00:37;100926.31;;;14.85;100.00
15272;BME280;7737;51.578;7.268;2022-10-16T08:03:04;100926.22;;;15.01;100.00
15272;BME280;7737;51.578;7.268;2022-10-16T08:05:32;100930.91;;;14.97;100.00
15272;BME280;7737;51.578;7.268;2022-10-16T08:07:59;100938.13;;;15.23;100.00
15272;BME280;7737;51.578;7.268;2022-10-16T08:10:27;100938.13;;;15.23;100.00
15272;BME280;7737;51.578;7.268;2022-10-16T08:12:54;100936.59;;;15.19;100.00
15272;BME280;7737;51.578;7.268;2022-10-16T08:15:22;100942.22;;;15.29;100.00
15272;BME280;7737;51.578;7.268;2022-10-16T08:17:55;100940.31;;;15.44;100.00
15272;BME280;7737;51.578;7.268;2022-10-16T08:20:21;100942.94;;;15.45;100.00
15272;BME280;7737;51.578;7.268;2022-10-16T08:22:48;100948.16;;;15.61;100.00
15272;BME280;7737;51.578;7.268;2022-10-16T08:25:14;100946.00;;;15.53;100.00
15272;BME280;7737;51.578;7.268;2022-10-16T08:27:41;100942.75;;;15.75;100.00
15272;BME280;7737;51.578;7.268;2022-10-16T08:30:09;100948.84;;;15.77;100.00
15272;BME280;7737;51.578;7.268;2022-10-16T08:32:37;100952.28;;;15.79;100.00
15272;BME280;7737;51.578;7.268;2022-10-16T08:35:04;100948.44;;;15.83;100.00
15272;BME280;7737;51.578;7.268;2022-10-16T08:37:30;100953.84;;;15.96;100.00
15272;BME280;7737;51.578;7.268;2022-10-16T08:39:57;100954.69;;;15.96;100.00
15272;BME280;7737;51.578;7.268;2022-10-16T08:42:39;100959.81;;;15.99;100.00
15272;BME280;7737;51.578;7.268;2022-10-16T08:45:20;100954.25;;;16.02;100.00
15272;BME280;7737;51.578;7.268;2022-10-16T08:47:59;100953.84;;;16.08;100.00
15272;BME280;7737;51.578;7.268;2022-10-16T08:50:28;100955.59;;;16.22;100.00
15272;BME280;7737;51.578;7.268;2022-10-16T08:52:57;100966.53;;;16.31;100.00
15272;BME280;7737;51.578;7.268;2022-10-16T08:55:30;100974.03;;;16.26;100.00
15272;BME280;7737;51.578;7.268;2022-10-16T08:57:59;100977.53;;;16.54;100.00
15272;BME280;7737;51.578;7.268;2022-10-16T09:00:26;100982.22;;;16.37;100.00
15272;BME280;7737;51.578;7.268;2022-10-16T09:03:00;100984.91;;;16.50;100.00
15272;BME280;7737;51.578;7.268;2022-10-16T09:08:39;100994.03;;;16.60;100.00
15272;BME280;7737;51.578;7.268;2022-10-16T09:11:12;100983.97;;;16.64;100.00
15272;BME280;7737;51.578;7.268;2022-10-16T09:13:48;100984.91;;;16.50;100.00
15272;BME280;7737;51.578;7.268;2022-10-16T09:16:20;100995.97;;;16.45;100.00
15272;BME280;7737;51.578;7.268;2022-10-16T09:18:55;100992.22;;;16.61;100.00
15272;BME280;7737;51.578;7.268;2022-10-16T09:21:26;100985.91;;;16.62;100.00
15272;BME280;7737;51.578;7.268;2022-10-16T09:23:57;101003.94;;;16.60;100.00
15272;BME280;7737;51.578;7.268;2022-10-16T09:26:25;101006.28;;;16.77;100.00
15272;BME280;7737;51.578;7.268;2022-10-16T09:28:52;101004.06;;;16.83;100.00
15272;BME280;7737;51.578;7.268;2022-10-16T09:31:21;101005.66;;;16.86;100.00
15272;BME280;7737;51.578;7.268;2022-10-16T09:33:52;100996.63;;;16.74;100.00
15272;BME280;7737;51.578;7.268;2022-10-16T09:36:20;101004.47;;;16.77;100.00
15272;BME280;7737;51.578;7.268;2022-10-16T09:38:47;101009.72;;;16.66;100.00
15272;BME280;7737;51.578;7.268;2022-10-16T09:41:17;101008.88;;;16.78;100.00
15272;BME280;7737;51.578;7.268;2022-10-16T09:43:52;101012.09;;;16.83;100.00
15272;BME280;7737;51.578;7.268;2022-10-16T09:46:27;101009.94;;;17.01;100.00
15272;BME280;7737;51.578;7.268;2022-10-16T09:48:57;101007.34;;;17.12;100.00
15272;BME280;7737;51.578;7.268;2022-10-16T09:51:26;101010.66;;;17.03;100.00
15272;BME280;7737;51.578;7.268;2022-10-16T09:53:56;101010.63;;;17.28;100.00
15272;BME280;7737;51.578;7.268;2022-10-16T09:56:24;101006.34;;;17.26;100.00
15272;BME280;7737;51.578;7.268;2022-10-16T09:58:52;101006.03;;;17.05;100.00
15272;BME280;7737;51.578;7.268;2022-10-16T10:01:19;101008.19;;;17.00;100.00
15272;BME280;7737;51.578;7.268;2022-10-16T10:03:47;101017.88;;;17.15;100.00
15272;BME280;7737;51.578;7.268;2022-10-16T10:06:20;101009.84;;;17.39;100.00
15272;BME280;7737;51.578;7.268;2022-10-16T10:09:00;101016.38;;;17.47;100.00
15272;BME280;7737;51.578;7.268;2022-10-16T10:11:49;101005.72;;;17.46;100.00
15272;BME280;7737;51.578;7.268;2022-10-16T10:14:19;101003.22;;;17.68;100.00
15272;BME280;7737;51.578;7.268;2022-10-16T10:16:47;101004.81;;;17.71;100.00
15272;BME280;7737;51.578;7.268;2022-10-16T10:19:16;101000.97;;;17.62;100.00
15272;BME280;7737;51.578;7.268;2022-10-16T10:21:44;100998.97;;;17.77;100.00
15272;BME280;7737;51.578;7.268;2022-10-16T10:24:12;100996.47;;;17.62;100.00
15272;BME280;7737;51.578;7.268;2022-10-16T10:26:44;101004.25;;;17.78;100.00
15272;BME280;7737;51.578;7.268;2022-10-16T10:29:15;101001.19;;;18.06;100.00
15272;BME280;7737;51.578;7.268;2022-10-16T10:31:47;101005.00;;;18.15;100.00
15272;BME280;7737;51.578;7.268;2022-10-16T10:34:31;101012.53;;;17.99;100.00
15272;BME280;7737;51.578;7.268;2022-10-16T10:37:08;101002.84;;;18.31;100.00
15272;BME280;7737;51.578;7.268;2022-10-16T10:39:41;101007.69;;;18.15;100.00
15272;BME280;7737;51.578;7.268;2022-10-16T10:42:18;101005.22;;;18.47;100.00
15272;BME280;7737;51.578;7.268;2022-10-16T10:44:57;101003.94;;;18.52;100.00
15272;BME280;7737;51.578;7.268;2022-10-16T10:47:34;101000.16;;;18.88;100.00
15272;BME280;7737;51.578;7.268;2022-10-16T10:50:10;100993.03;;;18.65;100.00
15272;BME280;7737;51.578;7.268;2022-10-16T10:52:53;101003.94;;;18.63;100.00
15272;BME280;7737;51.578;7.268;2022-10-16T10:55:31;101004.94;;;18.84;100.00
15272;BME280;7737;51.578;7.268;2022-10-16T11:01:01;100999.41;;;18.64;100.00
15272;BME280;7737;51.578;7.268;2022-10-16T11:03:42;100996.56;;;18.54;100.00
15272;BME280;7737;51.578;7.268;2022-10-16T11:06:16;101002.81;;;18.20;100.00
15272;BME280;7737;51.578;7.268;2022-10-16T11:08:48;101007.38;;;18.31;100.00
15272;BME280;7737;51.578;7.268;2022-10-16T11:11:24;100995.88;;;18.63;100.00
15272;BME280;7737;51.578;7.268;2022-10-16T11:13:56;100993.78;;;18.89;100.00
15272;BME280;7737;51.578;7.268;2022-10-16T11:16:27;100999.19;;;19.11;100.00
15272;BME280;7737;51.578;7.268;2022-10-16T11:18:58;100987.88;;;19.28;100.00
15272;BME280;7737;51.578;7.268;2022-10-16T11:21:28;100982.97;;;19.33;100.00
15272;BME280;7737;51.578;7.268;2022-10-16T11:24:01;100990.50;;;19.08;100.00
15272;BME280;7737;51.578;7.268;2022-10-16T11:26:39;100995.28;;;19.37;100.00
15272;BME280;7737;51.578;7.268;2022-10-16T11:29:13;100981.66;;;19.17;100.00
15272;BME280;7737;51.578;7.268;2022-10-16T11:31:47;100975.91;;;19.21;100.00
15272;BME280;7737;51.578;7.268;2022-10-16T11:34:23;100990.56;;;19.62;100.00
15272;BME280;7737;51.578;7.268;2022-10-16T11:36:55;100984.81;;;19.44;100.00
15272;BME280;7737;51.578;7.268;2022-10-16T11:39:26;100984.34;;;19.50;100.00
15272;BME280;7737;51.578;7.268;2022-10-16T11:41:55;100992.75;;;19.57;100.00
15272;BME280;7737;51.578;7.268;2022-10-16T11:44:41;101000.56;;;19.71;100.00
15272;BME280;7737;51.578;7.268;2022-10-16T11:47:22;100997.34;;;19.45;100.00
15272;BME280;7737;51.578;7.268;2022-10-16T11:49:52;100980.91;;;19.48;100.00
15272;BME280;7737;51.578;7.268;2022-10-16T11:52:25;100985.66;;;19.98;100.00
15272;BME280;7737;51.578;7.268;2022-10-16T11:54:59;100986.41;;;19.89;100.00
15272;BME280;7737;51.578;7.268;2022-10-16T11:57:32;100989.97;;;19.90;100.00
15272;BME280;7737;51.578;7.268;2022-10-16T12:00:05;100997.09;;;19.48;100.00
15272;BME280;7737;51.578;7.268;2022-10-16T12:02:44;100993.31;;;19.82;100.00
15272;BME280;7737;51.578;7.268;2022-10-16T12:05:22;101002.44;;;19.59;100.00
15272;BME280;7737;51.578;7.268;2022-10-16T12:07:55;100999.19;;;19.87;100.00
15272;BME280;7737;51.578;7.268;2022-10-16T12:10:27;100989.97;;;20.42;100.00
15272;BME280;7737;51.578;7.268;2022-10-16T12:12:56;100993.19;;;19.73;100.00
15272;BME280;7737;51.578;7.268;2022-10-16T12:15:25;101008.09;;;19.56;100.00
15272;BME280;7737;51.578;7.268;2022-10-16T12:17:52;101009.34;;;19.41;100.00
15272;BME280;7737;51.578;7.268;2022-10-16T12:20:26;101010.44;;;19.92;100.00
15272;BME280;7737;51.578;7.268;2022-10-16T12:22:56;101014.72;;;19.52;100.00
15272;BME280;7737;51.578;7.268;2022-10-16T12:25:27;101004.66;;;19.54;100.00
15272;BME280;7737;51.578;7.268;2022-10-16T12:28:03;101008.16;;;20.09;100.00
15272;BME280;7737;51.578;7.268;2022-10-16T12:30:32;101003.31;;;19.91;100.00
15272;BME280;7737;51.578;7.268;2022-10-16T12:33:03;100995.84;;;19.95;100.00
15272;BME280;7737;51.578;7.268;2022-10-16T12:35:32;101004.53;;;20.30;100.00
15272;BME280;7737;51.578;7.268;2022-10-16T12:38:16;100999.53;;;20.46;100.00
15272;BME280;7737;51.578;7.268;2022-10-16T12:40:46;100996.97;;;20.13;100.00
15272;BME280;7737;51.578;7.268;2022-10-16T12:43:34;101004.13;;;19.71;100.00
15272;BME280;7737;51.578;7.268;2022-10-16T12:46:04;101007.34;;;19.65;100.00
15272;BME280;7737;51.578;7.268;2022-10-16T12:48:31;101009.03;;;19.77;100.00
15272;BME280;7737;51.578;7.268;2022-10-16T12:51:09;101005.03;;;19.92;100.00
15272;BME280;7737;51.578;7.268;2022-10-16T12:53:36;101003.53;;;19.99;100.00
15272;BME280;7737;51.578;7.268;2022-10-16T12:56:10;101012.69;;;19.76;100.00
15272;BME280;7737;51.578;7.268;2022-10-16T12:58:52;101012.91;;;19.84;100.00
15272;BME280;7737;51.578;7.268;2022-10-16T13:01:36;101005.66;;;20.28;100.00
15272;BME280;7737;51.578;7.268;2022-10-16T13:04:20;100994.16;;;20.15;100.00
15272;BME280;7737;51.578;7.268;2022-10-16T13:06:53;101009.50;;;19.82;100.00
15272;BME280;7737;51.578;7.268;2022-10-16T13:09:35;101009.06;;;19.66;100.00